sensor_id;sensor_type;location;lat;lon;timestamp;P1;durP1;ratioP1;P2;durP2;ratioP2
42244;SDS011;27912;51.828;5.688;2023-09-19T00:00:57;9.93;;;1.27;;
42244;SDS011;27912;51.828;5.688;2023-09-19T00:03:23;7.38;;;1.00;;
42244;SDS011;27912;51.828;5.688;2023-09-19T00:05:50;12.85;;;1.27;;
42244;SDS011;27912;51.828;5.688;2023-09-19T00:08:16;5.85;;;0.80;;
42244;SDS011;27912;51.828;5.688;2023-09-19T00:10:42;6.55;;;0.80;;
42244;SDS011;27912;51.828;5.688;2023-09-19T00:13:09;9.48;;;0.90;;
42244;SDS011;27912;51.828;5.688;2023-09-19T00:15:39;10.93;;;1.05;;
42244;SDS011;27912;51.828;5.688;2023-09-19T00:18:06;11.07;;;1.85;;
42244;SDS011;27912;51.828;5.688;2023-09-19T00:20:35;5.75;;;1.00;;
42244;SDS011;27912;51.828;5.688;2023-09-19T00:23:02;5.75;;;1.38;;
42244;SDS011;27912;51.828;5.688;2023-09-19T00:25:34;10.02;;;1.50;;
42244;SDS011;27912;51.828;5.688;2023-09-19T00:28:01;10.27;;;1.50;;
42244;SDS011;27912;51.828;5.688;2023-09-19T00:30:26;12.98;;;1.65;;
42244;SDS011;27912;51.828;5.688;2023-09-19T00:32:52;12.73;;;1.30;;
42244;SDS011;27912;51.828;5.688;2023-09-19T00:35:18;16.10;;;2.13;;
42244;SDS011;27912;51.828;5.688;2023-09-19T00:37:49;10.32;;;1.63;;
42244;SDS011;27912;51.828;5.688;2023-09-19T00:40:15;14.55;;;1.75;;
42244;SDS011;27912;51.828;5.688;2023-09-19T00:42:42;8.82;;;1.17;;
42244;SDS011;27912;51.828;5.688;2023-09-19T00:45:08;10.38;;;1.20;;
42244;SDS011;27912;51.828;5.688;2023-09-19T00:47:36;8.82;;;1.55;;
42244;SDS011;27912;51.828;5.688;2023-09-19T00:50:03;9.40;;;1.40;;
42244;SDS011;27912;51.828;5.688;2023-09-19T00:52:32;11.88;;;2.05;;
42244;SDS011;27912;51.828;5.688;2023-09-19T00:55:05;14.30;;;2.30;;
42244;SDS011;27912;51.828;5.688;2023-09-19T00:57:32;18.75;;;2.30;;
42244;SDS011;27912;51.828;5.688;2023-09-19T00:59:58;13.55;;;1.23;;
42244;SDS011;27912;51.828;5.688;2023-09-19T01:02:29;10.48;;;1.52;;
42244;SDS011;27912;51.828;5.688;2023-09-19T01:04:56;7.13;;;1.40;;
42244;SDS011;27912;51.828;5.688;2023-09-19T01:07:22;10.68;;;1.45;;
42244;SDS011;27912;51.828;5.688;2023-09-19T01:09:48;13.68;;;1.55;;
42244;SDS011;27912;51.828;5.688;2023-09-19T01:12:16;8.95;;;1.15;;
42244;SDS011;27912;51.828;5.688;2023-09-19T01:14:55;7.82;;;1.17;;
42244;SDS011;27912;51.828;5.688;2023-09-19T01:17:30;13.05;;;1.77;;
42244;SDS011;27912;51.828;5.688;2023-09-19T01:22:48;7.65;;;1.67;;
42244;SDS011;27912;51.828;5.688;2023-09-19T01:25:20;8.27;;;1.17;;
42244;SDS011;27912;51.828;5.688;2023-09-19T01:28:16;10.40;;;1.58;;
42244;SDS011;27912;51.828;5.688;2023-09-19T01:30:39;7.97;;;1.30;;
42244;SDS011;27912;51.828;5.688;2023-09-19T01:33:08;13.20;;;1.23;;
42244;SDS011;27912;51.828;5.688;2023-09-19T01:35:37;8.93;;;0.95;;
42244;SDS011;27912;51.828;5.688;2023-09-19T01:38:04;11.82;;;1.08;;
42244;SDS011;27912;51.828;5.688;2023-09-19T01:40:31;9.13;;;1.08;;
42244;SDS011;27912;51.828;5.688;2023-09-19T01:43:07;11.65;;;1.58;;
42244;SDS011;27912;51.828;5.688;2023-09-19T01:49:03;14.63;;;1.30;;
42244;SDS011;27912;51.828;5.688;2023-09-19T01:51:35;13.98;;;1.20;;
42244;SDS011;27912;51.828;5.688;2023-09-19T01:54:12;13.00;;;1.38;;
42244;SDS011;27912;51.828;5.688;2023-09-19T01:59:13;12.10;;;1.30;;
42244;SDS011;27912;51.828;5.688;2023-09-19T02:01:42;12.18;;;1.13;;
42244;SDS011;27912;51.828;5.688;2023-09-19T02:04:10;7.38;;;1.02;;
42244;SDS011;27912;51.828;5.688;2023-09-19T02:06:39;11.43;;;1.17;;
42244;SDS011;27912;51.828;5.688;2023-09-19T02:09:06;14.52;;;1.75;;
42244;SDS011;27912;51.828;5.688;2023-09-19T02:11:31;13.38;;;1.45;;
42244;SDS011;27912;51.828;5.688;2023-09-19T02:13:57;8.32;;;1.05;;
42244;SDS011;27912;51.828;5.688;2023-09-19T02:16:24;9.88;;;1.20;;
42244;SDS011;27912;51.828;5.688;2023-09-19T02:18:50;10.43;;;1.05;;
42244;SDS011;27912;51.828;5.688;2023-09-19T02:21:16;10.75;;;1.88;;
42244;SDS011;27912;51.828;5.688;2023-09-19T02:23:46;6.65;;;1.45;;
42244;SDS011;27912;51.828;5.688;2023-09-19T02:26:16;7.57;;;1.27;;
42244;SDS011;27912;51.828;5.688;2023-09-19T02:28:43;11.90;;;1.50;;
42244;SDS011;27912;51.828;5.688;2023-09-19T02:31:10;10.00;;;1.15;;
42244;SDS011;27912;51.828;5.688;2023-09-19T02:33:36;11.75;;;1.00;;
42244;SDS011;27912;51.828;5.688;2023-09-19T02:36:02;12.13;;;1.40;;
42244;SDS011;27912;51.828;5.688;2023-09-19T02:38:28;13.32;;;1.63;;
42244;SDS011;27912;51.828;5.688;2023-09-19T02:40:54;12.07;;;1.17;;
42244;SDS011;27912;51.828;5.688;2023-09-19T02:43:20;8.20;;;0.85;;
42244;SDS011;27912;51.828;5.688;2023-09-19T02:45:47;8.35;;;0.80;;
42244;SDS011;27912;51.828;5.688;2023-09-19T02:48:14;12.05;;;1.15;;
42244;SDS011;27912;51.828;5.688;2023-09-19T02:50:40;8.95;;;0.98;;
42244;SDS011;27912;51.828;5.688;2023-09-19T02:53:07;9.63;;;1.70;;
42244;SDS011;27912;51.828;5.688;2023-09-19T02:55:32;9.65;;;0.80;;
42244;SDS011;27912;51.828;5.688;2023-09-19T02:57:58;7.63;;;0.90;;
42244;SDS011;27912;51.828;5.688;2023-09-19T03:00:25;11.60;;;1.20;;
42244;SDS011;27912;51.828;5.688;2023-09-19T03:02:55;10.23;;;1.00;;
42244;SDS011;27912;51.828;5.688;2023-09-19T03:05:21;7.18;;;1.10;;
42244;SDS011;27912;51.828;5.688;2023-09-19T03:07:48;12.95;;;1.27;;
42244;SDS011;27912;51.828;5.688;2023-09-19T03:10:16;11.25;;;1.10;;
42244;SDS011;27912;51.828;5.688;2023-09-19T03:12:42;17.23;;;1.10;;
42244;SDS011;27912;51.828;5.688;2023-09-19T03:15:08;12.05;;;1.02;;
42244;SDS011;27912;51.828;5.688;2023-09-19T03:17:35;12.20;;;1.27;;
42244;SDS011;27912;51.828;5.688;2023-09-19T03:20:01;9.00;;;1.05;;
42244;SDS011;27912;51.828;5.688;2023-09-19T03:22:27;11.00;;;0.90;;
42244;SDS011;27912;51.828;5.688;2023-09-19T03:24:53;8.52;;;0.85;;
42244;SDS011;27912;51.828;5.688;2023-09-19T03:27:19;9.18;;;1.15;;
42244;SDS011;27912;51.828;5.688;2023-09-19T03:29:45;11.70;;;1.63;;
42244;SDS011;27912;51.828;5.688;2023-09-19T03:32:11;14.80;;;0.90;;
42244;SDS011;27912;51.828;5.688;2023-09-19T03:34:37;7.22;;;0.80;;
42244;SDS011;27912;51.828;5.688;2023-09-19T03:37:08;12.20;;;1.52;;
42244;SDS011;27912;51.828;5.688;2023-09-19T03:39:34;5.22;;;0.95;;
42244;SDS011;27912;51.828;5.688;2023-09-19T03:42:00;8.40;;;1.00;;
42244;SDS011;27912;51.828;5.688;2023-09-19T03:44:26;8.90;;;1.23;;
42244;SDS011;27912;51.828;5.688;2023-09-19T03:46:51;5.68;;;0.70;;
42244;SDS011;27912;51.828;5.688;2023-09-19T03:49:17;6.38;;;0.90;;
42244;SDS011;27912;51.828;5.688;2023-09-19T03:51:42;9.27;;;0.73;;
42244;SDS011;27912;51.828;5.688;2023-09-19T03:54:08;10.05;;;0.98;;
42244;SDS011;27912;51.828;5.688;2023-09-19T03:56:34;10.98;;;1.10;;
42244;SDS011;27912;51.828;5.688;2023-09-19T03:58:59;12.25;;;2.72;;
42244;SDS011;27912;51.828;5.688;2023-09-19T04:01:25;10.30;;;1.02;;
42244;SDS011;27912;51.828;5.688;2023-09-19T04:03:52;8.93;;;1.00;;
42244;SDS011;27912;51.828;5.688;2023-09-19T04:06:18;8.13;;;0.65;;
42244;SDS011;27912;51.828;5.688;2023-09-19T04:08:44;7.22;;;0.85;;
42244;SDS011;27912;51.828;5.688;2023-09-19T04:11:09;6.45;;;0.70;;
42244;SDS011;27912;51.828;5.688;2023-09-19T04:13:35;13.18;;;1.58;;
42244;SDS011;27912;51.828;5.688;2023-09-19T04:16:02;10.15;;;0.90;;
42244;SDS011;27912;51.828;5.688;2023-09-19T04:18:31;8.98;;;1.15;;
42244;SDS011;27912;51.828;5.688;2023-09-19T04:20:58;10.93;;;1.15;;
42244;SDS011;27912;51.828;5.688;2023-09-19T04:23:27;13.13;;;0.82;;
42244;SDS011;27912;51.828;5.688;2023-09-19T04:25:53;8.00;;;0.82;;
42244;SDS011;27912;51.828;5.688;2023-09-19T04:28:19;9.10;;;0.60;;
42244;SDS011;27912;51.828;5.688;2023-09-19T04:30:44;9.20;;;1.13;;
42244;SDS011;27912;51.828;5.688;2023-09-19T04:33:09;16.40;;;0.90;;
42244;SDS011;27912;51.828;5.688;2023-09-19T04:35:36;8.40;;;0.70;;
42244;SDS011;27912;51.828;5.688;2023-09-19T04:38:04;8.70;;;0.65;;
42244;SDS011;27912;51.828;5.688;2023-09-19T04:40:31;8.40;;;0.68;;
42244;SDS011;27912;51.828;5.688;2023-09-19T04:42:58;5.00;;;0.63;;
42244;SDS011;27912;51.828;5.688;2023-09-19T04:45:25;6.53;;;0.70;;
42244;SDS011;27912;51.828;5.688;2023-09-19T04:47:54;4.70;;;0.80;;
42244;SDS011;27912;51.828;5.688;2023-09-19T04:50:21;11.70;;;0.88;;
42244;SDS011;27912;51.828;5.688;2023-09-19T04:52:51;6.95;;;0.68;;
42244;SDS011;27912;51.828;5.688;2023-09-19T04:55:17;8.45;;;0.80;;
42244;SDS011;27912;51.828;5.688;2023-09-19T04:57:47;5.43;;;1.15;;
42244;SDS011;27912;51.828;5.688;2023-09-19T05:00:14;10.93;;;0.77;;
42244;SDS011;27912;51.828;5.688;2023-09-19T05:02:42;7.85;;;0.88;;
42244;SDS011;27912;51.828;5.688;2023-09-19T05:05:08;10.32;;;1.15;;
42244;SDS011;27912;51.828;5.688;2023-09-19T05:07:36;5.95;;;0.70;;
42244;SDS011;27912;51.828;5.688;2023-09-19T05:10:02;10.52;;;1.00;;
42244;SDS011;27912;51.828;5.688;2023-09-19T05:12:31;7.93;;;0.63;;
42244;SDS011;27912;51.828;5.688;2023-09-19T05:14:57;8.00;;;1.23;;
42244;SDS011;27912;51.828;5.688;2023-09-19T05:17:23;13.50;;;1.25;;
42244;SDS011;27912;51.828;5.688;2023-09-19T05:19:49;6.57;;;0.70;;
42244;SDS011;27912;51.828;5.688;2023-09-19T05:22:15;9.20;;;1.13;;
42244;SDS011;27912;51.828;5.688;2023-09-19T05:24:40;9.88;;;0.90;;
42244;SDS011;27912;51.828;5.688;2023-09-19T05:27:06;6.90;;;0.90;;
42244;SDS011;27912;51.828;5.688;2023-09-19T05:29:32;6.97;;;0.80;;
42244;SDS011;27912;51.828;5.688;2023-09-19T05:31:58;8.90;;;1.48;;
42244;SDS011;27912;51.828;5.688;2023-09-19T05:34:24;8.95;;;0.90;;
42244;SDS011;27912;51.828;5.688;2023-09-19T05:36:50;13.70;;;1.00;;
42244;SDS011;27912;51.828;5.688;2023-09-19T05:39:17;8.40;;;1.15;;
42244;SDS011;27912;51.828;5.688;2023-09-19T05:41:42;7.03;;;0.60;;
42244;SDS011;27912;51.828;5.688;2023-09-19T05:44:08;7.20;;;0.70;;
42244;SDS011;27912;51.828;5.688;2023-09-19T05:46:34;9.55;;;1.30;;
42244;SDS011;27912;51.828;5.688;2023-09-19T05:48:59;8.07;;;0.90;;
42244;SDS011;27912;51.828;5.688;2023-09-19T05:51:25;9.50;;;0.80;;
42244;SDS011;27912;51.828;5.688;2023-09-19T05:53:53;7.90;;;0.80;;
42244;SDS011;27912;51.828;5.688;2023-09-19T05:56:19;12.93;;;1.05;;
42244;SDS011;27912;51.828;5.688;2023-09-19T05:58:45;10.25;;;1.08;;
42244;SDS011;27912;51.828;5.688;2023-09-19T06:01:11;8.25;;;1.33;;
42244;SDS011;27912;51.828;5.688;2023-09-19T06:03:36;10.18;;;0.98;;
42244;SDS011;27912;51.828;5.688;2023-09-19T06:06:02;10.48;;;1.00;;
42244;SDS011;27912;51.828;5.688;2023-09-19T06:08:29;7.50;;;0.80;;
42244;SDS011;27912;51.828;5.688;2023-09-19T06:10:56;9.80;;;0.90;;
42244;SDS011;27912;51.828;5.688;2023-09-19T06:13:21;11.07;;;1.23;;
42244;SDS011;27912;51.828;5.688;2023-09-19T06:15:48;12.70;;;1.10;;
42244;SDS011;27912;51.828;5.688;2023-09-19T06:18:14;7.03;;;0.80;;
42244;SDS011;27912;51.828;5.688;2023-09-19T06:20:44;5.28;;;0.68;;
42244;SDS011;27912;51.828;5.688;2023-09-19T06:23:11;9.40;;;0.80;;
42244;SDS011;27912;51.828;5.688;2023-09-19T06:25:36;9.32;;;0.85;;
42244;SDS011;27912;51.828;5.688;2023-09-19T06:28:02;7.40;;;0.90;;
42244;SDS011;27912;51.828;5.688;2023-09-19T06:30:30;12.95;;;1.63;;
42244;SDS011;27912;51.828;5.688;2023-09-19T06:32:56;8.05;;;0.75;;
42244;SDS011;27912;51.828;5.688;2023-09-19T06:35:22;8.10;;;1.05;;
42244;SDS011;27912;51.828;5.688;2023-09-19T06:37:48;11.65;;;1.00;;
42244;SDS011;27912;51.828;5.688;2023-09-19T06:40:14;7.90;;;1.02;;
42244;SDS011;27912;51.828;5.688;2023-09-19T06:42:44;4.97;;;0.63;;
42244;SDS011;27912;51.828;5.688;2023-09-19T06:45:12;8.05;;;1.13;;
42244;SDS011;27912;51.828;5.688;2023-09-19T06:47:38;5.43;;;0.80;;
42244;SDS011;27912;51.828;5.688;2023-09-19T06:50:04;13.63;;;1.25;;
42244;SDS011;27912;51.828;5.688;2023-09-19T06:52:31;14.75;;;1.42;;
42244;SDS011;27912;51.828;5.688;2023-09-19T06:54:58;7.50;;;0.80;;
42244;SDS011;27912;51.828;5.688;2023-09-19T06:57:23;9.25;;;0.93;;
42244;SDS011;27912;51.828;5.688;2023-09-19T06:59:49;9.18;;;0.95;;
42244;SDS011;27912;51.828;5.688;2023-09-19T07:02:15;13.63;;;1.20;;
42244;SDS011;27912;51.828;5.688;2023-09-19T07:04:40;13.48;;;1.10;;
42244;SDS011;27912;51.828;5.688;2023-09-19T07:07:06;9.52;;;1.20;;
42244;SDS011;27912;51.828;5.688;2023-09-19T07:09:35;8.95;;;0.90;;
42244;SDS011;27912;51.828;5.688;2023-09-19T07:12:00;12.95;;;1.13;;
42244;SDS011;27912;51.828;5.688;2023-09-19T07:14:26;10.82;;;1.00;;
42244;SDS011;27912;51.828;5.688;2023-09-19T07:16:52;8.25;;;0.75;;
42244;SDS011;27912;51.828;5.688;2023-09-19T07:19:17;12.20;;;1.23;;
42244;SDS011;27912;51.828;5.688;2023-09-19T07:21:43;10.60;;;0.80;;
42244;SDS011;27912;51.828;5.688;2023-09-19T07:24:11;9.30;;;0.82;;
42244;SDS011;27912;51.828;5.688;2023-09-19T07:26:38;12.13;;;1.70;;
42244;SDS011;27912;51.828;5.688;2023-09-19T07:29:04;10.07;;;1.50;;
42244;SDS011;27912;51.828;5.688;2023-09-19T07:31:31;13.32;;;2.40;;
42244;SDS011;27912;51.828;5.688;2023-09-19T07:33:57;15.60;;;1.30;;
42244;SDS011;27912;51.828;5.688;2023-09-19T07:36:22;16.42;;;1.10;;
42244;SDS011;27912;51.828;5.688;2023-09-19T07:38:49;13.02;;;1.13;;
42244;SDS011;27912;51.828;5.688;2023-09-19T07:41:15;9.45;;;1.08;;
42244;SDS011;27912;51.828;5.688;2023-09-19T07:43:40;15.32;;;1.35;;
42244;SDS011;27912;51.828;5.688;2023-09-19T07:46:06;8.02;;;1.13;;
42244;SDS011;27912;51.828;5.688;2023-09-19T07:48:33;15.68;;;1.42;;
42244;SDS011;27912;51.828;5.688;2023-09-19T07:51:03;12.85;;;1.80;;
42244;SDS011;27912;51.828;5.688;2023-09-19T07:53:31;11.90;;;1.20;;
42244;SDS011;27912;51.828;5.688;2023-09-19T07:56:03;9.75;;;1.52;;
42244;SDS011;27912;51.828;5.688;2023-09-19T07:58:29;14.55;;;1.85;;
42244;SDS011;27912;51.828;5.688;2023-09-19T08:00:56;11.20;;;1.17;;
42244;SDS011;27912;51.828;5.688;2023-09-19T08:03:21;12.30;;;1.83;;
42244;SDS011;27912;51.828;5.688;2023-09-19T08:05:47;10.82;;;1.15;;
42244;SDS011;27912;51.828;5.688;2023-09-19T08:08:13;8.88;;;1.50;;
42244;SDS011;27912;51.828;5.688;2023-09-19T08:10:39;8.70;;;0.90;;
42244;SDS011;27912;51.828;5.688;2023-09-19T08:13:07;10.15;;;1.13;;
42244;SDS011;27912;51.828;5.688;2023-09-19T08:15:36;14.23;;;2.70;;
42244;SDS011;27912;51.828;5.688;2023-09-19T08:18:08;14.35;;;1.17;;
42244;SDS011;27912;51.828;5.688;2023-09-19T08:20:36;8.27;;;1.15;;
42244;SDS011;27912;51.828;5.688;2023-09-19T08:23:03;14.38;;;1.92;;
42244;SDS011;27912;51.828;5.688;2023-09-19T08:25:28;11.25;;;1.38;;
42244;SDS011;27912;51.828;5.688;2023-09-19T08:27:55;8.52;;;1.20;;
42244;SDS011;27912;51.828;5.688;2023-09-19T08:32:58;10.50;;;2.13;;
42244;SDS011;27912;51.828;5.688;2023-09-19T08:35:28;18.80;;;2.42;;
42244;SDS011;27912;51.828;5.688;2023-09-19T08:37:53;16.95;;;1.10;;
42244;SDS011;27912;51.828;5.688;2023-09-19T08:40:20;12.30;;;2.05;;
42244;SDS011;27912;51.828;5.688;2023-09-19T08:45:15;11.73;;;1.38;;
42244;SDS011;27912;51.828;5.688;2023-09-19T08:47:55;10.50;;;1.10;;
42244;SDS011;27912;51.828;5.688;2023-09-19T08:50:31;9.13;;;1.00;;
42244;SDS011;27912;51.828;5.688;2023-09-19T08:53:00;9.82;;;0.90;;
42244;SDS011;27912;51.828;5.688;2023-09-19T08:55:35;11.93;;;1.48;;
42244;SDS011;27912;51.828;5.688;2023-09-19T08:58:03;9.35;;;1.15;;
42244;SDS011;27912;51.828;5.688;2023-09-19T09:00:31;7.78;;;1.45;;
42244;SDS011;27912;51.828;5.688;2023-09-19T09:02:58;15.77;;;1.65;;
42244;SDS011;27912;51.828;5.688;2023-09-19T09:05:25;9.88;;;1.30;;
42244;SDS011;27912;51.828;5.688;2023-09-19T09:07:52;14.90;;;1.15;;
42244;SDS011;27912;51.828;5.688;2023-09-19T09:10:21;10.15;;;0.90;;
42244;SDS011;27912;51.828;5.688;2023-09-19T09:12:53;13.40;;;1.90;;
42244;SDS011;27912;51.828;5.688;2023-09-19T09:15:23;9.95;;;0.90;;
42244;SDS011;27912;51.828;5.688;2023-09-19T09:17:49;9.93;;;0.95;;
42244;SDS011;27912;51.828;5.688;2023-09-19T09:20:18;14.82;;;1.60;;
42244;SDS011;27912;51.828;5.688;2023-09-19T09:22:50;13.82;;;1.20;;
42244;SDS011;27912;51.828;5.688;2023-09-19T09:25:21;7.88;;;1.17;;
42244;SDS011;27912;51.828;5.688;2023-09-19T09:28:00;9.40;;;1.10;;
42244;SDS011;27912;51.828;5.688;2023-09-19T09:30:33;9.02;;;1.00;;
42244;SDS011;27912;51.828;5.688;2023-09-19T09:33:12;15.82;;;1.15;;
42244;SDS011;27912;51.828;5.688;2023-09-19T09:35:55;8.00;;;0.93;;
42244;SDS011;27912;51.828;5.688;2023-09-19T09:38:26;9.00;;;1.05;;
42244;SDS011;27912;51.828;5.688;2023-09-19T09:40:57;12.15;;;1.40;;
42244;SDS011;27912;51.828;5.688;2023-09-19T09:43:45;11.75;;;1.40;;
42244;SDS011;27912;51.828;5.688;2023-09-19T09:46:14;11.75;;;1.23;;
42244;SDS011;27912;51.828;5.688;2023-09-19T09:48:47;12.40;;;1.75;;
42244;SDS011;27912;51.828;5.688;2023-09-19T09:51:41;8.45;;;1.13;;
42244;SDS011;27912;51.828;5.688;2023-09-19T09:54:22;8.63;;;1.05;;
42244;SDS011;27912;51.828;5.688;2023-09-19T09:59:18;16.63;;;2.15;;
42244;SDS011;27912;51.828;5.688;2023-09-19T10:01:48;11.88;;;1.27;;
42244;SDS011;27912;51.828;5.688;2023-09-19T10:04:26;6.95;;;1.10;;
42244;SDS011;27912;51.828;5.688;2023-09-19T10:07:00;9.40;;;1.05;;
42244;SDS011;27912;51.828;5.688;2023-09-19T10:09:30;14.00;;;2.00;;
42244;SDS011;27912;51.828;5.688;2023-09-19T10:12:09;15.90;;;2.00;;
42244;SDS011;27912;51.828;5.688;2023-09-19T10:14:37;10.63;;;1.60;;
42244;SDS011;27912;51.828;5.688;2023-09-19T10:17:08;8.85;;;0.80;;
42244;SDS011;27912;51.828;5.688;2023-09-19T10:22:22;7.32;;;0.77;;
42244;SDS011;27912;51.828;5.688;2023-09-19T10:24:50;7.80;;;1.45;;
42244;SDS011;27912;51.828;5.688;2023-09-19T10:27:21;8.02;;;1.15;;
42244;SDS011;27912;51.828;5.688;2023-09-19T10:29:51;15.20;;;1.13;;
42244;SDS011;27912;51.828;5.688;2023-09-19T10:32:21;12.15;;;1.63;;
42244;SDS011;27912;51.828;5.688;2023-09-19T10:34:48;11.25;;;0.80;;
42244;SDS011;27912;51.828;5.688;2023-09-19T10:37:18;8.38;;;1.00;;
42244;SDS011;27912;51.828;5.688;2023-09-19T10:39:47;11.35;;;1.02;;
42244;SDS011;27912;51.828;5.688;2023-09-19T10:42:16;5.20;;;0.90;;
42244;SDS011;27912;51.828;5.688;2023-09-19T10:44:45;9.05;;;1.10;;
42244;SDS011;27912;51.828;5.688;2023-09-19T10:47:18;11.20;;;1.40;;
42244;SDS011;27912;51.828;5.688;2023-09-19T10:49:45;7.25;;;0.80;;
42244;SDS011;27912;51.828;5.688;2023-09-19T10:52:11;12.80;;;1.17;;
42244;SDS011;27912;51.828;5.688;2023-09-19T10:54:45;8.57;;;0.93;;
42244;SDS011;27912;51.828;5.688;2023-09-19T10:57:23;7.38;;;1.05;;
42244;SDS011;27912;51.828;5.688;2023-09-19T11:00:05;8.15;;;1.15;;
42244;SDS011;27912;51.828;5.688;2023-09-19T11:06:03;6.63;;;0.88;;
42244;SDS011;27912;51.828;5.688;2023-09-19T11:25:47;7.68;;;0.70;;
42244;SDS011;27912;51.828;5.688;2023-09-19T11:30:46;12.65;;;1.25;;
42244;SDS011;27912;51.828;5.688;2023-09-19T11:36:10;7.03;;;1.30;;
42244;SDS011;27912;51.828;5.688;2023-09-19T11:43:50;7.95;;;0.60;;
42244;SDS011;27912;51.828;5.688;2023-09-19T11:46:24;9.75;;;0.85;;
42244;SDS011;27912;51.828;5.688;2023-09-19T11:48:50;7.03;;;1.25;;
42244;SDS011;27912;51.828;5.688;2023-09-19T11:51:20;8.25;;;0.63;;
42244;SDS011;27912;51.828;5.688;2023-09-19T11:53:52;10.00;;;0.80;;
42244;SDS011;27912;51.828;5.688;2023-09-19T11:56:27;9.02;;;0.45;;
42244;SDS011;27912;51.828;5.688;2023-09-19T11:58:54;5.13;;;0.70;;
42244;SDS011;27912;51.828;5.688;2023-09-19T12:01:30;13.80;;;0.75;;
42244;SDS011;27912;51.828;5.688;2023-09-19T12:03:58;7.15;;;0.75;;
42244;SDS011;27912;51.828;5.688;2023-09-19T12:06:27;5.30;;;0.50;;
42244;SDS011;27912;51.828;5.688;2023-09-19T12:08:54;6.88;;;0.70;;
42244;SDS011;27912;51.828;5.688;2023-09-19T12:11:22;4.93;;;0.40;;
42244;SDS011;27912;51.828;5.688;2023-09-19T12:13:48;5.93;;;0.50;;
42244;SDS011;27912;51.828;5.688;2023-09-19T12:16:15;2.47;;;0.30;;
42244;SDS011;27912;51.828;5.688;2023-09-19T12:18:42;3.90;;;0.40;;
42244;SDS011;27912;51.828;5.688;2023-09-19T12:21:21;4.10;;;0.45;;
42244;SDS011;27912;51.828;5.688;2023-09-19T12:26:38;6.88;;;0.82;;
42244;SDS011;27912;51.828;5.688;2023-09-19T12:29:09;3.83;;;0.40;;
42244;SDS011;27912;51.828;5.688;2023-09-19T12:31:43;3.80;;;0.40;;
42244;SDS011;27912;51.828;5.688;2023-09-19T12:34:16;4.55;;;0.30;;
42244;SDS011;27912;51.828;5.688;2023-09-19T12:36:47;3.70;;;0.50;;
42244;SDS011;27912;51.828;5.688;2023-09-19T12:39:23;3.75;;;0.50;;
42244;SDS011;27912;51.828;5.688;2023-09-19T12:41:50;4.30;;;0.82;;
42244;SDS011;27912;51.828;5.688;2023-09-19T12:44:18;3.45;;;0.30;;
42244;SDS011;27912;51.828;5.688;2023-09-19T12:46:44;6.07;;;0.60;;
42244;SDS011;27912;51.828;5.688;2023-09-19T12:49:16;3.17;;;0.40;;
42244;SDS011;27912;51.828;5.688;2023-09-19T12:51:43;2.90;;;0.35;;
42244;SDS011;27912;51.828;5.688;2023-09-19T12:54:10;3.33;;;1.27;;
42244;SDS011;27912;51.828;5.688;2023-09-19T12:56:40;5.25;;;0.43;;
42244;SDS011;27912;51.828;5.688;2023-09-19T12:59:09;3.65;;;0.40;;
42244;SDS011;27912;51.828;5.688;2023-09-19T13:01:38;4.35;;;0.38;;
42244;SDS011;27912;51.828;5.688;2023-09-19T13:06:47;5.60;;;0.43;;
42244;SDS011;27912;51.828;5.688;2023-09-19T13:09:14;4.80;;;0.35;;
42244;SDS011;27912;51.828;5.688;2023-09-19T13:11:41;3.97;;;0.32;;
42244;SDS011;27912;51.828;5.688;2023-09-19T13:14:12;2.67;;;0.40;;
42244;SDS011;27912;51.828;5.688;2023-09-19T13:19:51;3.17;;;0.50;;
42244;SDS011;27912;51.828;5.688;2023-09-19T13:22:35;3.17;;;0.30;;
42244;SDS011;27912;51.828;5.688;2023-09-19T13:25:03;4.35;;;0.45;;
42244;SDS011;27912;51.828;5.688;2023-09-19T13:27:31;2.28;;;0.20;;
42244;SDS011;27912;51.828;5.688;2023-09-19T13:29:58;2.60;;;0.20;;
42244;SDS011;27912;51.828;5.688;2023-09-19T13:32:24;3.95;;;0.22;;
42244;SDS011;27912;51.828;5.688;2023-09-19T13:34:50;2.97;;;0.40;;
42244;SDS011;27912;51.828;5.688;2023-09-19T13:37:16;4.22;;;0.50;;
42244;SDS011;27912;51.828;5.688;2023-09-19T13:39:43;4.28;;;0.43;;
42244;SDS011;27912;51.828;5.688;2023-09-19T13:42:12;4.03;;;0.30;;
42244;SDS011;27912;51.828;5.688;2023-09-19T13:44:38;2.72;;;0.38;;
42244;SDS011;27912;51.828;5.688;2023-09-19T13:47:06;5.40;;;0.43;;
42244;SDS011;27912;51.828;5.688;2023-09-19T13:49:34;1.63;;;0.25;;
42244;SDS011;27912;51.828;5.688;2023-09-19T13:52:01;2.88;;;0.20;;
42244;SDS011;27912;51.828;5.688;2023-09-19T13:54:30;4.25;;;0.30;;
42244;SDS011;27912;51.828;5.688;2023-09-19T13:56:55;9.27;;;0.63;;
42244;SDS011;27912;51.828;5.688;2023-09-19T13:59:21;4.28;;;0.30;;
42244;SDS011;27912;51.828;5.688;2023-09-19T14:01:48;2.58;;;0.30;;
42244;SDS011;27912;51.828;5.688;2023-09-19T14:04:14;1.88;;;0.30;;
42244;SDS011;27912;51.828;5.688;2023-09-19T14:06:41;3.45;;;0.30;;
42244;SDS011;27912;51.828;5.688;2023-09-19T14:09:07;2.92;;;0.30;;
42244;SDS011;27912;51.828;5.688;2023-09-19T14:11:33;2.97;;;0.32;;
42244;SDS011;27912;51.828;5.688;2023-09-19T14:13:58;1.92;;;0.50;;
42244;SDS011;27912;51.828;5.688;2023-09-19T14:16:25;5.38;;;0.40;;
42244;SDS011;27912;51.828;5.688;2023-09-19T14:18:55;2.45;;;0.30;;
42244;SDS011;27912;51.828;5.688;2023-09-19T14:21:20;2.20;;;0.32;;
42244;SDS011;27912;51.828;5.688;2023-09-19T14:23:46;1.45;;;0.30;;
42244;SDS011;27912;51.828;5.688;2023-09-19T14:26:11;4.90;;;0.55;;
42244;SDS011;27912;51.828;5.688;2023-09-19T14:28:37;3.83;;;0.30;;
42244;SDS011;27912;51.828;5.688;2023-09-19T14:31:07;4.55;;;0.30;;
42244;SDS011;27912;51.828;5.688;2023-09-19T14:33:34;4.57;;;0.30;;
42244;SDS011;27912;51.828;5.688;2023-09-19T14:36:07;2.60;;;0.30;;
42244;SDS011;27912;51.828;5.688;2023-09-19T14:38:35;4.32;;;0.40;;
42244;SDS011;27912;51.828;5.688;2023-09-19T14:41:02;6.13;;;0.43;;
42244;SDS011;27912;51.828;5.688;2023-09-19T14:43:29;10.90;;;0.50;;
42244;SDS011;27912;51.828;5.688;2023-09-19T14:45:55;4.90;;;0.40;;
42244;SDS011;27912;51.828;5.688;2023-09-19T14:48:22;1.63;;;0.30;;
42244;SDS011;27912;51.828;5.688;2023-09-19T14:50:50;2.95;;;0.30;;
42244;SDS011;27912;51.828;5.688;2023-09-19T14:53:16;5.95;;;0.40;;
42244;SDS011;27912;51.828;5.688;2023-09-19T14:55:43;4.40;;;0.40;;
42244;SDS011;27912;51.828;5.688;2023-09-19T14:58:10;4.63;;;0.40;;
42244;SDS011;27912;51.828;5.688;2023-09-19T15:00:37;5.88;;;0.45;;
42244;SDS011;27912;51.828;5.688;2023-09-19T15:03:03;3.90;;;0.45;;
42244;SDS011;27912;51.828;5.688;2023-09-19T15:05:29;1.95;;;0.32;;
42244;SDS011;27912;51.828;5.688;2023-09-19T15:07:55;3.30;;;0.40;;
42244;SDS011;27912;51.828;5.688;2023-09-19T15:10:21;3.00;;;0.30;;
42244;SDS011;27912;51.828;5.688;2023-09-19T15:12:47;4.97;;;0.40;;
42244;SDS011;27912;51.828;5.688;2023-09-19T15:15:13;3.33;;;0.68;;
42244;SDS011;27912;51.828;5.688;2023-09-19T15:17:39;5.78;;;0.47;;
42244;SDS011;27912;51.828;5.688;2023-09-19T15:20:05;5.97;;;0.50;;
42244;SDS011;27912;51.828;5.688;2023-09-19T15:22:32;2.08;;;0.30;;
42244;SDS011;27912;51.828;5.688;2023-09-19T15:24:59;5.90;;;0.63;;
42244;SDS011;27912;51.828;5.688;2023-09-19T15:27:26;2.67;;;0.52;;
42244;SDS011;27912;51.828;5.688;2023-09-19T15:29:53;5.22;;;0.50;;
42244;SDS011;27912;51.828;5.688;2023-09-19T15:32:18;6.20;;;0.57;;
42244;SDS011;27912;51.828;5.688;2023-09-19T15:34:44;6.93;;;0.50;;
42244;SDS011;27912;51.828;5.688;2023-09-19T15:37:09;3.33;;;0.50;;
42244;SDS011;27912;51.828;5.688;2023-09-19T15:39:35;5.93;;;0.50;;
42244;SDS011;27912;51.828;5.688;2023-09-19T15:42:02;6.22;;;0.95;;
42244;SDS011;27912;51.828;5.688;2023-09-19T15:44:27;4.28;;;0.45;;
42244;SDS011;27912;51.828;5.688;2023-09-19T15:46:53;2.60;;;0.40;;